This is the latest recevied weather packets stored in our database for station/object VK3PBR-10. If no packets are shown the sender has not sent any weather packets the latest 10 day(s).
| Time | Temp. | Humidity | Pressure | Rain* | Wind** | Luminosity | Snow |
|---|---|---|---|---|---|---|---|
| 1787896008 | 18.89° C | 57% | 1032.2 hPa | - | - | - | - |
| 1787895108 | 18.33° C | 58% | 1032.2 hPa | - | - | - | - |
| 1787894207 | 16.67° C | 59% | 1030.1 hPa | - | - | - | - |
| 1787893307 | 18.33° C | 59% | 1032.3 hPa | - | - | - | - |
| 1787892406 | 17.78° C | 60% | 1032.4 hPa | - | - | - | - |
| 1787891506 | 16.67° C | 63% | 1032.5 hPa | - | - | - | - |
| 1787890606 | 15.56° C | 64% | 1032.6 hPa | - | - | - | - |
| 1787889706 | 15° C | 65% | 1032.5 hPa | - | - | - | - |
| 1787888806 | 15° C | 66% | 1032.5 hPa | - | - | - | - |
| 1787887905 | 180° C | 65% | 1026.3 hPa | - | - | - | - |
| 1787887004 | 15° C | 63% | 1032.3 hPa | - | - | - | - |
| 1787886103 | 16.67° C | 53% | 1032.1 hPa | - | - | - | - |
| 1787885203 | 17.22° C | 52% | 1032.2 hPa | - | - | - | - |
| 1787884302 | 18.89° C | 48% | 1032.2 hPa | - | - | - | - |
| 1787883401 | 18.89° C | 46% | 1032.1 hPa | - | - | - | - |
| 1787882501 | 18.89° C | 44% | 1032.2 hPa | - | - | - | - |
| 1787881601 | 19.44° C | 43% | 1032.2 hPa | - | - | - | - |
| 1787880701 | 18.89° C | 43% | 1032.2 hPa | - | - | - | - |
| 1787879800 | 17.78° C | 43% | 1032.4 hPa | - | - | - | - |
| 1787878900 | 18.33° C | 41% | 1032.5 hPa | - | - | - | - |
| 1787877999 | 20° C | 39% | 1032.2 hPa | - | - | - | - |
| 1787877099 | 21.11° C | 37% | 1032.1 hPa | - | - | - | - |
| 1787876199 | 21.11° C | 37% | 1032 hPa | - | - | - | - |
| 1787875299 | 20.56° C | 37% | 1031.9 hPa | - | - | - | - |
| 1787874399 | 20.56° C | 39% | 1031.7 hPa | - | - | - | - |
* Rain since midnight (hover to see other rain measurements)
** Current wind speed in m/s (hover to see current wind gust speed)